Station: Kingscote  

  Atmospheric Gas Attenuation - ITU Rec 676-11   ----------------- dB/100km -----------------
Date Time Temp RH % AH g/m3 Dew Point Wind Direction Speed kph Gust kph Barometer mB Rainfall Since 9am 24GHz 47GHz 76GHz 122GHz 134GHz 241GHz
08/05 12:00 16.1 78 10.69 12.3 24 35 1031.2 0 23.9 29.3 48.0 126.1 125.1 431.8
08/05 11:50 17.3 74 10.9 12.6 26 32 1031.1 0 24.3 29.3 48.1 126.5 126.0 435.3
08/05 11:40 16.8 76 10.87 12.5 24 33 1031.3 0 24.2 29.4 48.3 127.0 126.4 436.7
08/05 11:30 16.8 73 10.44 11.9 28 37 1031.4 0 23.3 28.7 46.5 122.2 120.5 416.1
08/05 11:20 16.7 75 10.66 12.3 32 35 1031.3 0 23.8 29.1 47.5 124.8 123.7 427.1
08/05 11:10 16.5 75 10.53 12.1 28 33 1031.4 0 23.5 28.9 47.1 123.7 122.2 422.0
08/05 11:00 15.4 80 10.51 12 22 32 1031.7 0 23.6 29.3 47.7 125.2 123.7 427.1
08/05 10:50 16 81 11.04 12.7 19 22 1031.6 0 24.6 30.0 49.6 130.3 130.2 449.7
08/05 10:40 15.3 87 11.36 13.1 22 24 1031.7 0 25.4 30.8 51.4 135.2 136.0 469.8
08/05 10:30 14.6 88 11.01 12.6 22 28 1031.8 0 24.7 30.4 50.3 132.3 132.2 456.5
08/05 10:20 15.1 84 10.84 12.4 24 28 1031.7 0 24.3 30.0 49.3 129.5 128.9 445.0
08/05 10:10 15.8 82 11.04 12.7 20 24 1031.6 0 24.7 30.1 49.7 130.6 130.5 450.9
08/05 10:00 15.8 84 11.31 13.1 24 33 1031.7 0 25.2 30.5 50.9 133.7 134.4 464.3
08/05 09:50 15 87 11.16 12.9 24 28 1031.6 0 25.0 30.6 50.7 133.4 133.6 461.6
08/05 09:40 14.9 91 11.6 13.4 22 24 1031.6 0 25.9 31.4 52.7 138.7 140.2 484.4
08/05 09:30 14.4 92 11.37 13.1 19 24 1031.7 0 25.5 31.1 52.1 136.9 137.7 475.9
08/05 09:20 14.1 91 11.04 12.7 24 28 1031.6 0 24.8 30.7 50.8 133.5 133.5 460.9
08/05 09:10 14.3 91 11.18 12.9 15 19 1031.4 0 25.1 30.8 51.3 134.8 135.1 466.7
08/05 09:00 14.1 93 11.29 13 15 22 1031.4 0 25.3 31.1 51.9 136.4 137.1 473.5
08/05 08:50 13.6 93 10.95 12.5 15 17 1031.3 0 24.6 30.7 50.7 133.3 133.0 459.2
08/05 08:40 13.5 93 10.88 12.4 13 15 1031.3 0 24.5 30.6 50.5 132.6 132.1 456.2
08/05 08:30 13.4 92 10.7 12.1 15 20 1031.4 0 24.1 30.3 49.7 130.7 129.7 447.7
08/05 08:20 13.5 92 10.76 12.2 17 19 1031.2 0 24.2 30.4 49.9 131.2 130.4 450.1
08/05 08:10 13.2 90 10.33 11.6 13 15 1031.2 0 23.3 29.7 48.2 126.7 124.7 430.2
08/05 08:00 13.4 89 10.35 11.6 17 22 1031.2 0 23.3 29.7 48.2 126.6 124.7 430.1
08/05 07:50 13.7 85 10.07 11.2 19 22 1031 0 22.7 29.1 46.8 122.8 120.2 414.5
08/05 07:40 13.9 83 9.95 11.1 13 15 1030.9 0 22.4 28.8 46.2 121.1 118.2 407.5
08/05 07:30 13.8 82 9.77 10.8 13 19 1030.9 0 22.1 28.5 45.4 119.3 115.8 399.2
08/05 07:20 13.7 82 9.71 10.7 11 13 1030.6 0 21.9 28.4 45.2 118.7 115.1 396.7
08/05 07:10 13.6 81 9.53 10.4 13 17 1030.5 0 21.6 28.2 44.5 116.8 112.7 388.5
08/05 07:00 13.7 80 9.47 10.3 15 19 1030.5 0 21.4 28.0 44.2 116.0 111.8 385.1
08/05 06:50 13.7 79 9.36 10.1 15 17 1030.2 0 21.2 27.8 43.7 114.7 110.2 379.7
08/05 06:40 13.7 77 9.12 9.7 13 15 1030.2 0 20.7 27.4 42.7 112.1 106.9 368.2
08/05 06:30 13.8 77 9.17 9.8 17 20 1030.3 0 20.8 27.5 42.9 112.5 107.5 370.1
08/05 06:20 13.8 76 9.06 9.6 15 17 1030.1 0 20.6 27.3 42.4 111.2 106.0 364.8
08/05 06:10 13.8 76 9.06 9.6 13 15 1030.1 0 20.6 27.3 42.4 111.2 106.0 364.8
08/05 06:00 13.8 77 9.17 9.8 15 22 1030.1 0 20.8 27.5 42.9 112.5 107.5 370.1
08/05 05:50 13.6 78 9.18 9.8 13 13 1029.9 0 20.8 27.5 43.0 112.8 107.9 371.4
08/05 05:40 13.5 78 9.12 9.7 13 13 1030 0 20.7 27.5 42.8 112.3 107.2 369.1
08/05 05:30 13.6 77 9.06 9.6 15 19 1030.2 0 20.6 27.4 42.5 111.5 106.3 365.8
08/05 05:20 13.6 77 9.06 9.6 13 15 1030.1 0 20.6 27.4 42.5 111.5 106.3 365.8
08/05 05:10 13.7 76 9 9.6 15 17 1030.1 0 20.4 27.2 42.2 110.7 105.3 362.4
08/05 05:00 13.8 75 8.94 9.5 17 24 1030.1 0 20.3 27.1 41.9 109.9 104.4 359.1
08/05 04:50 13.8 75 8.94 9.5 17 19 1030 0 20.3 27.1 41.9 109.9 104.3 359.1
08/05 04:40 13.9 76 9.11 9.7 19 20 1030 0 20.7 27.3 42.6 111.6 106.5 366.7
08/05 04:30 13.3 78 9.01 9.5 9 15 1030.2 0 20.5 27.4 42.5 111.4 106.0 364.8
08/05 04:20 13.1 78 8.9 9.4 9 11 1030.1 0 20.2 27.2 42.1 110.5 104.8 360.4
08/05 04:10 13.1 77 8.79 9.2 9 11 1030 0 20.0 27.1 41.7 109.2 103.2 355.2
08/05 04:00 13.2 76 8.73 9.1 11 15 1030 0 19.9 26.9 41.4 108.4 102.3 351.9
08/05 03:50 13.2 75 8.61 8.9 11 11 1029.8 0 19.6 26.7 40.9 107.1 100.7 346.2
08/05 03:40 13.2 75 8.61 8.9 13 15 1029.7 0 19.6 26.7 40.9 107.1 100.7 346.1
08/05 03:30 13.2 75 8.61 8.9 11 15 1030 0 19.6 26.7 40.9 107.1 100.7 346.2
08/05 03:20 13.2 75 8.61 8.9 15 15 1030 0 19.6 26.7 40.9 107.1 100.7 346.2
08/05 03:10 13.4 74 8.6 8.9 13 15 1030 0 19.6 26.6 40.8 106.7 100.3 344.9
08/05 03:00 13.5 74 8.66 9 15 19 1030.1 0 19.7 26.7 41.0 107.3 101.0 347.3
08/05 02:50 13.4 74 8.6 8.9 15 17 1030 0 19.6 26.6 40.8 106.7 100.3 344.9
08/05 02:40 13.4 75 8.72 9.1 13 17 1030.1 0 19.8 26.8 41.2 108.1 101.9 350.5
08/05 02:30 13.2 75 8.61 8.9 11 20 1030.3 0 19.6 26.7 40.9 107.2 100.7 346.3
08/05 02:20 13 74 8.39 8.5 13 17 1030.2 0 19.2 26.4 40.1 105.0 98.0 336.8
08/05 02:10 13.4 74 8.6 8.9 13 13 1030.3 0 19.6 26.7 40.8 106.8 100.3 344.9
08/05 02:00 13.1 76 8.67 9 11 15 1030.4 0 19.8 26.9 41.2 108.0 101.7 349.6
08/05 01:50 12.8 77 8.63 8.9 9 9 1030.4 0 19.7 26.9 41.2 107.9 101.5 349.0
08/05 01:40 12.7 77 8.57 8.8 11 11 1030.5 0 19.6 26.8 41.0 107.4 100.8 346.7
08/05 01:30 12.7 77 8.57 8.8 11 13 1030.7 0 19.6 26.8 41.0 107.4 100.9 346.7
08/05 01:20 12.7 77 8.57 8.8 11 13 1030.6 0 19.6 26.8 41.0 107.4 100.8 346.7
08/05 01:10 12.7 77 8.57 8.8 13 15 1030.5 0 19.6 26.8 41.0 107.4 100.8 346.7
08/05 01:00 12.6 77 8.52 8.7 11 15 1030.6 0 19.5 26.8 40.9 107.0 100.3 344.8
08/05 00:50 12.6 77 8.52 8.7 11 13 1030.5 0 19.5 26.8 40.9 107.0 100.3 344.7
08/05 00:40 12.5 78 8.58 8.8 11 11 1030.5 0 19.6 26.9 41.2 107.8 101.2 348.0
08/05 00:30 12.4 78 8.52 8.7 11 15 1030.6 0 19.5 26.8 41.0 107.3 100.6 345.6
08/05 00:20 12.4 78 8.52 8.7 13 13 1030.6 0 19.5 26.8 41.0 107.3 100.6 345.6
08/05 00:10 12.3 78 8.47 8.6 11 13 1030.6 0 19.4 26.8 40.8 106.9 100.0 343.7
08/05 00:00 12.2 77 8.31 8.3 11 15 1030.8 0 19.0 26.6 40.2 105.3 98.0 336.6
07/05 23:50 12.5 76 8.36 8.4 11 13 1030.7 0 19.1 26.5 40.3 105.4 98.3 337.7
07/05 23:40 12.4 76 8.3 8.3 13 13 1030.8 0 19.0 26.5 40.1 104.9 97.6 335.3
07/05 23:30 12.3 77 8.36 8.4 13 15 1030.9 0 19.1 26.6 40.4 105.7 98.5 338.6
07/05 23:20 12.2 77 8.31 8.3 13 15 1030.8 0 19.0 26.6 40.2 105.3 98.0 336.6
07/05 23:10 12 78 8.31 8.3 13 13 1030.8 0 19.0 26.6 40.3 105.5 98.2 337.5
07/05 23:00 11.8 79 8.32 8.3 13 15 1031 0 19.1 26.7 40.5 105.9 98.6 338.9
07/05 22:50 11.5 80 8.26 8.2 13 13 1030.9 0 19.0 26.7 40.4 105.7 98.2 337.3
07/05 22:40 11.1 79 7.96 7.6 11 13 1031 0 18.3 26.3 39.3 102.9 94.6 324.7
07/05 22:30 11.4 76 7.8 7.3 11 15 1031.1 0 18.0 26.0 38.5 100.8 92.1 316.0
07/05 22:20 12.1 76 8.15 8 11 13 1031 0 18.7 26.3 39.6 103.7 96.0 329.5
07/05 22:10 12.3 76 8.25 8.2 13 15 1030.9 0 18.9 26.4 39.9 104.5 97.1 333.4
07/05 22:00 12.5 76 8.36 8.4 13 17 1031 0 19.1 26.6 40.3 105.4 98.3 337.7
07/05 21:50 12.3 77 8.36 8.4 11 11 1031 0 19.1 26.6 40.4 105.7 98.5 338.6
07/05 21:40 12.1 77 8.26 8.2 13 15 1031 0 18.9 26.5 40.1 104.9 97.4 334.7
07/05 21:30 12.2 77 8.31 8.3 13 17 1031.1 0 19.0 26.6 40.2 105.3 98.0 336.7
07/05 21:20 12.3 77 8.36 8.4 11 13 1031 0 19.1 26.6 40.4 105.7 98.5 338.6
07/05 21:10 12.2 78 8.42 8.5 11 13 1031 0 19.3 26.7 40.7 106.5 99.5 341.9
07/05 21:00 12 78 8.31 8.3 11 13 1031.2 0 19.0 26.6 40.3 105.6 98.3 337.6
07/05 20:50 11.8 79 8.32 8.3 9 9 1031.2 0 19.1 26.7 40.5 106.0 98.7 338.9
07/05 20:40 11.7 78 8.16 8 7 9 1031.2 0 18.7 26.5 39.9 104.3 96.6 331.7
07/05 20:30 11.5 78 8.06 7.8 9 13 1031.3 0 18.5 26.4 39.6 103.5 95.5 327.9
07/05 20:20 11.2 78 7.91 7.5 11 11 1031.2 0 18.2 26.2 39.1 102.3 93.8 322.0
07/05 20:10 11.4 77 7.9 7.5 9 11 1031.2 0 18.2 26.1 39.0 101.9 93.5 320.7
07/05 20:00 11.7 76 7.95 7.6 9 11 1031.3 0 18.3 26.1 39.0 102.1 93.8 321.8
07/05 19:50 12.1 75 8.04 7.8 9 9 1031.2 0 18.5 26.2 39.2 102.5 94.5 324.4
07/05 19:40 12.3 75 8.14 8 9 9 1031.2 0 18.7 26.3 39.5 103.3 95.6 328.3
07/05 19:30 12.4 75 8.2 8.1 11 13 1031.4 0 18.8 26.3 39.7 103.9 96.3 330.7

Last Refresh: 08-May-2026 12:08:00

Bureau of Meteorology